sensor_id;sensor_type;location;lat;lon;timestamp;pressure;altitude;pressure_sealevel;temperature;humidity
70302;BME280;57706;56.326;43.882;2023-03-04T00:00:30;99075.41;;;-0.89;80.61
70302;BME280;57706;56.326;43.882;2023-03-04T00:02:56;99071.19;;;-0.90;80.13
70302;BME280;57706;56.326;43.882;2023-03-04T00:05:22;99072.16;;;-1.02;80.84
70302;BME280;57706;56.326;43.882;2023-03-04T00:07:47;99073.69;;;-1.11;80.82
70302;BME280;57706;56.326;43.882;2023-03-04T00:10:13;99069.50;;;-1.23;81.57
70302;BME280;57706;56.326;43.882;2023-03-04T00:12:39;99065.16;;;-1.23;81.99
70302;BME280;57706;56.326;43.882;2023-03-04T00:15:05;99068.91;;;-1.27;82.42
70302;BME280;57706;56.326;43.882;2023-03-04T00:17:31;99069.38;;;-1.33;82.56
70302;BME280;57706;56.326;43.882;2023-03-04T00:19:57;99068.66;;;-1.47;82.78
70302;BME280;57706;56.326;43.882;2023-03-04T00:22:23;99066.56;;;-1.19;82.17
70302;BME280;57706;56.326;43.882;2023-03-04T00:24:49;99067.94;;;-1.15;81.77
70302;BME280;57706;56.326;43.882;2023-03-04T00:27:15;99065.84;;;-1.09;81.36
70302;BME280;57706;56.326;43.882;2023-03-04T00:29:41;99066.53;;;-1.07;81.82
70302;BME280;57706;56.326;43.882;2023-03-04T00:32:07;99062.75;;;-0.92;80.93
70302;BME280;57706;56.326;43.882;2023-03-04T00:34:33;99059.47;;;-0.94;80.97
70302;BME280;57706;56.326;43.882;2023-03-04T00:36:58;99062.72;;;-0.80;80.59
70302;BME280;57706;56.326;43.882;2023-03-04T00:39:26;99061.56;;;-0.88;80.40
70302;BME280;57706;56.326;43.882;2023-03-04T00:41:53;99055.91;;;-0.70;80.33
70302;BME280;57706;56.326;43.882;2023-03-04T00:44:19;99058.34;;;-0.36;78.20
70302;BME280;57706;56.326;43.882;2023-03-04T00:46:46;99047.69;;;-0.21;77.53
70302;BME280;57706;56.326;43.882;2023-03-04T00:49:13;99063.50;;;-0.36;78.06
70302;BME280;57706;56.326;43.882;2023-03-04T00:51:38;99057.81;;;-0.30;78.34
70302;BME280;57706;56.326;43.882;2023-03-04T00:54:04;99053.47;;;-0.50;78.37
70302;BME280;57706;56.326;43.882;2023-03-04T00:56:30;99057.38;;;-0.56;79.51
70302;BME280;57706;56.326;43.882;2023-03-04T00:58:56;99052.44;;;-0.59;79.02
70302;BME280;57706;56.326;43.882;2023-03-04T01:01:22;99054.25;;;0.04;76.92
70302;BME280;57706;56.326;43.882;2023-03-04T01:03:47;99045.13;;;0.00;76.61
70302;BME280;57706;56.326;43.882;2023-03-04T01:06:13;99047.88;;;-0.13;77.42
70302;BME280;57706;56.326;43.882;2023-03-04T01:08:39;99035.09;;;-0.15;77.70
70302;BME280;57706;56.326;43.882;2023-03-04T01:11:06;99036.94;;;-0.26;78.11
70302;BME280;57706;56.326;43.882;2023-03-04T01:13:32;99035.28;;;-0.28;78.46
70302;BME280;57706;56.326;43.882;2023-03-04T01:15:58;99027.22;;;-0.34;77.41
70302;BME280;57706;56.326;43.882;2023-03-04T01:18:24;99037.59;;;-0.46;78.36
70302;BME280;57706;56.326;43.882;2023-03-04T01:20:50;99024.41;;;-0.31;77.50
70302;BME280;57706;56.326;43.882;2023-03-04T01:23:16;99021.72;;;-0.62;78.72
70302;BME280;57706;56.326;43.882;2023-03-04T01:25:42;99028.44;;;-0.71;79.16
70302;BME280;57706;56.326;43.882;2023-03-04T01:28:08;99019.56;;;-0.78;79.43
70302;BME280;57706;56.326;43.882;2023-03-04T01:30:33;99031.84;;;-0.71;80.04
70302;BME280;57706;56.326;43.882;2023-03-04T01:32:59;99028.19;;;-0.68;79.26
70302;BME280;57706;56.326;43.882;2023-03-04T01:35:25;99018.44;;;-0.64;78.71
70302;BME280;57706;56.326;43.882;2023-03-04T01:37:51;99024.91;;;-1.03;79.71
70302;BME280;57706;56.326;43.882;2023-03-04T01:40:17;99025.06;;;-1.16;80.77
70302;BME280;57706;56.326;43.882;2023-03-04T01:42:43;99013.06;;;-0.94;79.91
70302;BME280;57706;56.326;43.882;2023-03-04T01:45:13;99020.94;;;-0.74;79.73
70302;BME280;57706;56.326;43.882;2023-03-04T01:47:43;99016.94;;;-0.67;78.53
70302;BME280;57706;56.326;43.882;2023-03-04T01:50:27;99015.78;;;-0.74;79.11
70302;BME280;57706;56.326;43.882;2023-03-04T01:52:55;99023.66;;;-1.20;81.14
70302;BME280;57706;56.326;43.882;2023-03-04T01:55:22;99019.84;;;-0.93;80.14
70302;BME280;57706;56.326;43.882;2023-03-04T01:57:50;99032.00;;;-0.84;79.91
70302;BME280;57706;56.326;43.882;2023-03-04T02:00:32;99025.00;;;-0.93;79.93
70302;BME280;57706;56.326;43.882;2023-03-04T02:03:15;99018.25;;;-1.17;81.03
70302;BME280;57706;56.326;43.882;2023-03-04T02:05:44;99013.19;;;-0.74;79.33
70302;BME280;57706;56.326;43.882;2023-03-04T02:08:12;99012.19;;;-1.39;81.99
70302;BME280;57706;56.326;43.882;2023-03-04T02:10:41;99009.66;;;-1.61;82.90
70302;BME280;57706;56.326;43.882;2023-03-04T02:13:27;99008.84;;;-1.06;81.15
70302;BME280;57706;56.326;43.882;2023-03-04T02:15:53;99006.88;;;-1.14;81.45
70302;BME280;57706;56.326;43.882;2023-03-04T02:18:21;99007.63;;;-0.91;80.52
70302;BME280;57706;56.326;43.882;2023-03-04T02:21:02;99013.06;;;-0.94;80.17
70302;BME280;57706;56.326;43.882;2023-03-04T02:23:36;99001.72;;;-0.81;79.60
70302;BME280;57706;56.326;43.882;2023-03-04T02:26:18;99003.13;;;-1.10;80.05
70302;BME280;57706;56.326;43.882;2023-03-04T02:28:49;99003.03;;;-1.20;81.20
70302;BME280;57706;56.326;43.882;2023-03-04T02:31:30;98996.91;;;-1.07;80.51
70302;BME280;57706;56.326;43.882;2023-03-04T02:33:59;98996.09;;;-0.75;79.26
70302;BME280;57706;56.326;43.882;2023-03-04T02:36:27;98996.34;;;-0.78;78.86
70302;BME280;57706;56.326;43.882;2023-03-04T02:38:54;98993.38;;;-1.06;80.00
70302;BME280;57706;56.326;43.882;2023-03-04T02:41:24;99004.88;;;-1.11;80.52
70302;BME280;57706;56.326;43.882;2023-03-04T02:43:52;98993.38;;;-1.06;80.91
70302;BME280;57706;56.326;43.882;2023-03-04T02:46:19;98992.97;;;-1.34;81.22
70302;BME280;57706;56.326;43.882;2023-03-04T02:48:46;98991.06;;;-1.21;81.27
70302;BME280;57706;56.326;43.882;2023-03-04T02:51:12;98992.72;;;-1.31;82.67
70302;BME280;57706;56.326;43.882;2023-03-04T02:53:37;98988.28;;;-1.29;81.75
70302;BME280;57706;56.326;43.882;2023-03-04T02:56:03;98983.06;;;-1.06;80.52
70302;BME280;57706;56.326;43.882;2023-03-04T02:58:33;98981.94;;;-0.92;80.38
70302;BME280;57706;56.326;43.882;2023-03-04T03:00:59;98980.59;;;-0.75;79.40
70302;BME280;57706;56.326;43.882;2023-03-04T03:03:27;98975.72;;;-0.78;78.95
70302;BME280;57706;56.326;43.882;2023-03-04T03:05:54;98975.69;;;-1.00;80.09
70302;BME280;57706;56.326;43.882;2023-03-04T03:08:20;98973.56;;;-1.06;80.86
70302;BME280;57706;56.326;43.882;2023-03-04T03:10:46;98974.78;;;-0.89;80.02
70302;BME280;57706;56.326;43.882;2023-03-04T03:13:11;98966.31;;;-0.79;79.53
70302;BME280;57706;56.326;43.882;2023-03-04T03:15:37;98969.44;;;-0.97;80.41
70302;BME280;57706;56.326;43.882;2023-03-04T03:18:10;98959.78;;;-0.84;80.22
70302;BME280;57706;56.326;43.882;2023-03-04T03:20:36;98967.97;;;-0.78;80.26
70302;BME280;57706;56.326;43.882;2023-03-04T03:23:02;98958.22;;;-0.53;79.26
70302;BME280;57706;56.326;43.882;2023-03-04T03:25:29;98955.19;;;-0.59;78.44
70302;BME280;57706;56.326;43.882;2023-03-04T03:27:55;98957.69;;;-0.47;77.79
70302;BME280;57706;56.326;43.882;2023-03-04T03:30:21;98950.41;;;-0.42;77.90
70302;BME280;57706;56.326;43.882;2023-03-04T03:32:47;98946.50;;;-0.58;78.11
70302;BME280;57706;56.326;43.882;2023-03-04T03:35:13;98950.66;;;-0.45;77.94
70302;BME280;57706;56.326;43.882;2023-03-04T03:37:39;98939.44;;;-0.56;78.09
70302;BME280;57706;56.326;43.882;2023-03-04T03:40:06;98949.00;;;-0.89;79.19
70302;BME280;57706;56.326;43.882;2023-03-04T03:42:32;98940.25;;;-0.98;80.23
70302;BME280;57706;56.326;43.882;2023-03-04T03:44:57;98941.47;;;-1.13;80.57
70302;BME280;57706;56.326;43.882;2023-03-04T03:47:23;98945.81;;;-0.81;79.63
70302;BME280;57706;56.326;43.882;2023-03-04T03:49:49;98939.63;;;-0.90;79.92
70302;BME280;57706;56.326;43.882;2023-03-04T03:52:15;98936.97;;;-1.00;80.04
70302;BME280;57706;56.326;43.882;2023-03-04T03:54:40;98932.41;;;-0.53;78.54
70302;BME280;57706;56.326;43.882;2023-03-04T03:57:07;98928.25;;;-0.66;78.51
70302;BME280;57706;56.326;43.882;2023-03-04T03:59:33;98929.31;;;-0.68;78.83
70302;BME280;57706;56.326;43.882;2023-03-04T04:01:59;98919.06;;;-0.59;78.35
70302;BME280;57706;56.326;43.882;2023-03-04T04:04:25;98918.19;;;-0.69;78.14
70302;BME280;57706;56.326;43.882;2023-03-04T04:06:51;98921.91;;;-0.83;79.04
70302;BME280;57706;56.326;43.882;2023-03-04T04:09:17;98921.19;;;-0.64;78.08
70302;BME280;57706;56.326;43.882;2023-03-04T04:11:44;98915.72;;;-0.49;77.62
70302;BME280;57706;56.326;43.882;2023-03-04T04:14:13;98922.09;;;-0.53;77.78
70302;BME280;57706;56.326;43.882;2023-03-04T04:16:39;98921.44;;;-0.46;77.59
70302;BME280;57706;56.326;43.882;2023-03-04T04:19:05;98915.53;;;-0.58;78.34
70302;BME280;57706;56.326;43.882;2023-03-04T04:21:31;98922.78;;;-0.94;79.03
70302;BME280;57706;56.326;43.882;2023-03-04T04:23:57;98915.22;;;-0.86;79.48
70302;BME280;57706;56.326;43.882;2023-03-04T04:26:23;98916.03;;;-0.64;78.53
70302;BME280;57706;56.326;43.882;2023-03-04T04:28:49;98928.13;;;-0.64;78.28
70302;BME280;57706;56.326;43.882;2023-03-04T04:31:14;98923.91;;;-0.65;78.19
70302;BME280;57706;56.326;43.882;2023-03-04T04:33:40;98916.03;;;-0.64;78.95
70302;BME280;57706;56.326;43.882;2023-03-04T04:36:08;98914.38;;;-0.44;77.20
70302;BME280;57706;56.326;43.882;2023-03-04T04:38:37;98914.94;;;-0.40;77.14
70302;BME280;57706;56.326;43.882;2023-03-04T04:41:03;98920.09;;;-0.40;76.78
70302;BME280;57706;56.326;43.882;2023-03-04T04:43:29;98921.34;;;-0.34;76.22
70302;BME280;57706;56.326;43.882;2023-03-04T04:45:58;98929.47;;;-0.39;76.47
70302;BME280;57706;56.326;43.882;2023-03-04T04:48:24;98927.47;;;-0.57;77.14
70302;BME280;57706;56.326;43.882;2023-03-04T04:50:54;98931.00;;;-0.58;77.28
70302;BME280;57706;56.326;43.882;2023-03-04T04:53:20;98926.97;;;-0.29;76.82
70302;BME280;57706;56.326;43.882;2023-03-04T04:55:46;98931.78;;;-0.15;75.82
70302;BME280;57706;56.326;43.882;2023-03-04T04:58:12;98920.91;;;-0.18;75.68
70302;BME280;57706;56.326;43.882;2023-03-04T05:00:38;98920.91;;;-0.18;75.49
70302;BME280;57706;56.326;43.882;2023-03-04T05:03:04;98917.28;;;-0.06;75.07
70302;BME280;57706;56.326;43.882;2023-03-04T05:05:29;98920.59;;;-0.25;75.73
70302;BME280;57706;56.326;43.882;2023-03-04T05:07:55;98916.91;;;0.09;74.22
70302;BME280;57706;56.326;43.882;2023-03-04T05:10:21;98917.72;;;-0.01;75.12
70302;BME280;57706;56.326;43.882;2023-03-04T05:12:47;98919.91;;;0.04;74.45
70302;BME280;57706;56.326;43.882;2023-03-04T05:15:14;98923.47;;;0.13;74.31
70302;BME280;57706;56.326;43.882;2023-03-04T05:17:40;98923.28;;;0.65;71.92
70302;BME280;57706;56.326;43.882;2023-03-04T05:20:07;98919.69;;;0.37;72.53
70302;BME280;57706;56.326;43.882;2023-03-04T05:22:33;98919.59;;;-0.03;73.77
70302;BME280;57706;56.326;43.882;2023-03-04T05:24:59;98918.81;;;0.07;74.62
70302;BME280;57706;56.326;43.882;2023-03-04T05:27:25;98913.31;;;-0.10;75.13
70302;BME280;57706;56.326;43.882;2023-03-04T05:29:50;98924.81;;;0.68;72.09
70302;BME280;57706;56.326;43.882;2023-03-04T05:32:16;98921.09;;;0.61;71.53
70302;BME280;57706;56.326;43.882;2023-03-04T05:34:42;98921.13;;;0.71;71.17
70302;BME280;57706;56.326;43.882;2023-03-04T05:37:08;98915.13;;;0.70;71.42
70302;BME280;57706;56.326;43.882;2023-03-04T05:39:34;98906.16;;;0.94;70.73
70302;BME280;57706;56.326;43.882;2023-03-04T05:41:59;98909.00;;;1.30;69.14
70302;BME280;57706;56.326;43.882;2023-03-04T05:44:25;98912.38;;;1.41;68.53
70302;BME280;57706;56.326;43.882;2023-03-04T05:46:51;98902.94;;;1.59;67.87
70302;BME280;57706;56.326;43.882;2023-03-04T05:49:17;98896.72;;;1.80;67.03
70302;BME280;57706;56.326;43.882;2023-03-04T05:51:42;98904.22;;;1.83;65.80
70302;BME280;57706;56.326;43.882;2023-03-04T05:54:08;98897.09;;;1.47;67.75
70302;BME280;57706;56.326;43.882;2023-03-04T05:56:34;98901.97;;;1.98;65.68
70302;BME280;57706;56.326;43.882;2023-03-04T05:59:00;98892.69;;;2.24;65.07
70302;BME280;57706;56.326;43.882;2023-03-04T06:01:26;98892.56;;;2.43;63.92
70302;BME280;57706;56.326;43.882;2023-03-04T06:03:52;98892.88;;;2.40;64.22
70302;BME280;57706;56.326;43.882;2023-03-04T06:06:17;98892.88;;;2.40;64.11
70302;BME280;57706;56.326;43.882;2023-03-04T06:08:43;98897.84;;;2.33;63.97
70302;BME280;57706;56.326;43.882;2023-03-04T06:11:09;98898.16;;;2.48;63.46
70302;BME280;57706;56.326;43.882;2023-03-04T06:13:35;98899.63;;;2.05;64.62
70302;BME280;57706;56.326;43.882;2023-03-04T06:16:01;98891.81;;;2.33;64.21
70302;BME280;57706;56.326;43.882;2023-03-04T06:18:27;98898.06;;;2.77;62.97
70302;BME280;57706;56.326;43.882;2023-03-04T06:20:58;98893.25;;;3.00;61.18
70302;BME280;57706;56.326;43.882;2023-03-04T06:23:24;98891.91;;;2.41;63.68
70302;BME280;57706;56.326;43.882;2023-03-04T06:25:55;98889.94;;;2.71;62.63
70302;BME280;57706;56.326;43.882;2023-03-04T06:28:21;98886.59;;;2.97;61.50
70302;BME280;57706;56.326;43.882;2023-03-04T06:30:47;98898.06;;;2.77;62.79
70302;BME280;57706;56.326;43.882;2023-03-04T06:33:13;98890.94;;;3.15;60.74
70302;BME280;57706;56.326;43.882;2023-03-04T06:35:39;98889.09;;;3.34;60.31
70302;BME280;57706;56.326;43.882;2023-03-04T06:38:05;98882.66;;;3.38;59.67
70302;BME280;57706;56.326;43.882;2023-03-04T06:40:30;98893.00;;;3.29;59.83
70302;BME280;57706;56.326;43.882;2023-03-04T06:42:56;98896.16;;;2.79;61.38
70302;BME280;57706;56.326;43.882;2023-03-04T06:45:22;98893.66;;;2.87;62.05
70302;BME280;57706;56.326;43.882;2023-03-04T06:47:48;98892.22;;;3.37;60.27
70302;BME280;57706;56.326;43.882;2023-03-04T06:50:14;98892.16;;;3.55;58.95
70302;BME280;57706;56.326;43.882;2023-03-04T06:52:39;98895.97;;;3.43;59.12
70302;BME280;57706;56.326;43.882;2023-03-04T06:55:06;98886.56;;;3.42;58.97
70302;BME280;57706;56.326;43.882;2023-03-04T06:57:32;98891.25;;;3.12;60.39
70302;BME280;57706;56.326;43.882;2023-03-04T06:59:58;98887.97;;;3.10;60.42
70302;BME280;57706;56.326;43.882;2023-03-04T07:02:24;98887.16;;;3.36;59.82
70302;BME280;57706;56.326;43.882;2023-03-04T07:04:49;98876.13;;;3.60;58.68
70302;BME280;57706;56.326;43.882;2023-03-04T07:07:15;98876.75;;;3.89;58.21
70302;BME280;57706;56.326;43.882;2023-03-04T07:09:41;98882.28;;;3.33;59.22
70302;BME280;57706;56.326;43.882;2023-03-04T07:12:07;98878.53;;;2.64;61.76
70302;BME280;57706;56.326;43.882;2023-03-04T07:14:33;98871.00;;;3.15;59.83
70302;BME280;57706;56.326;43.882;2023-03-04T07:16:58;98861.41;;;3.77;57.74
70302;BME280;57706;56.326;43.882;2023-03-04T07:19:24;98858.56;;;4.73;56.60
70302;BME280;57706;56.326;43.882;2023-03-04T07:21:50;98851.09;;;5.60;53.23
70302;BME280;57706;56.326;43.882;2023-03-04T07:24:16;98846.38;;;7.95;47.22
70302;BME280;57706;56.326;43.882;2023-03-04T07:26:42;98843.13;;;9.24;43.02
70302;BME280;57706;56.326;43.882;2023-03-04T07:29:08;98845.41;;;10.25;41.55
70302;BME280;57706;56.326;43.882;2023-03-04T07:31:34;98825.59;;;16.14;31.60
70302;BME280;57706;56.326;43.882;2023-03-04T07:34:04;98826.41;;;19.96;25.60
70302;BME280;57706;56.326;43.882;2023-03-04T07:36:32;98825.69;;;17.17;27.67
70302;BME280;57706;56.326;43.882;2023-03-04T07:38:58;98823.97;;;15.31;29.76
70302;BME280;57706;56.326;43.882;2023-03-04T07:41:26;98826.69;;;12.91;33.75
70302;BME280;57706;56.326;43.882;2023-03-04T07:43:52;98831.50;;;18.96;25.12
70302;BME280;57706;56.326;43.882;2023-03-04T07:46:18;98824.78;;;19.90;24.43
70302;BME280;57706;56.326;43.882;2023-03-04T07:48:45;98822.19;;;21.04;22.76
70302;BME280;57706;56.326;43.882;2023-03-04T07:51:21;98818.47;;;18.29;25.90
70302;BME280;57706;56.326;43.882;2023-03-04T07:53:53;98812.72;;;17.87;25.92
70302;BME280;57706;56.326;43.882;2023-03-04T07:56:22;98820.38;;;22.21;21.42
70302;BME280;57706;56.326;43.882;2023-03-04T07:58:49;98814.22;;;22.90;19.94
70302;BME280;57706;56.326;43.882;2023-03-04T08:01:20;98818.78;;;21.75;20.77
70302;BME280;57706;56.326;43.882;2023-03-04T08:03:47;98802.25;;;23.06;20.40
70302;BME280;57706;56.326;43.882;2023-03-04T08:06:14;98810.44;;;22.26;19.84
70302;BME280;57706;56.326;43.882;2023-03-04T08:08:40;98803.41;;;24.45;18.81
70302;BME280;57706;56.326;43.882;2023-03-04T08:11:10;98794.97;;;24.52;17.46
70302;BME280;57706;56.326;43.882;2023-03-04T08:13:36;98801.19;;;26.15;16.82
70302;BME280;57706;56.326;43.882;2023-03-04T08:16:03;98797.94;;;27.98;14.41
70302;BME280;57706;56.326;43.882;2023-03-04T08:18:29;98787.25;;;30.51;13.26
70302;BME280;57706;56.326;43.882;2023-03-04T08:20:55;98780.50;;;29.38;13.33
70302;BME280;57706;56.326;43.882;2023-03-04T08:23:21;98781.28;;;27.87;14.40
70302;BME280;57706;56.326;43.882;2023-03-04T08:25:47;98772.34;;;25.42;16.66
70302;BME280;57706;56.326;43.882;2023-03-04T08:28:13;98764.94;;;24.50;16.65
70302;BME280;57706;56.326;43.882;2023-03-04T08:30:39;98767.34;;;23.99;17.44
70302;BME280;57706;56.326;43.882;2023-03-04T08:33:05;98764.94;;;24.50;17.62
70302;BME280;57706;56.326;43.882;2023-03-04T08:35:32;98760.47;;;25.71;15.64
70302;BME280;57706;56.326;43.882;2023-03-04T08:37:58;98751.09;;;28.20;14.83
70302;BME280;57706;56.326;43.882;2023-03-04T08:40:24;98750.09;;;28.81;13.22
70302;BME280;57706;56.326;43.882;2023-03-04T08:42:52;98749.19;;;27.94;13.65
70302;BME280;57706;56.326;43.882;2023-03-04T08:45:17;98755.59;;;23.56;16.57
70302;BME280;57706;56.326;43.882;2023-03-04T08:47:43;98743.53;;;23.34;17.02
70302;BME280;57706;56.326;43.882;2023-03-04T08:50:09;98750.97;;;25.88;15.38
70302;BME280;57706;56.326;43.882;2023-03-04T08:52:35;98758.16;;;20.83;19.09
70302;BME280;57706;56.326;43.882;2023-03-04T08:55:02;98747.78;;;22.92;17.89
70302;BME280;57706;56.326;43.882;2023-03-04T08:57:29;98748.72;;;24.88;16.09
70302;BME280;57706;56.326;43.882;2023-03-04T08:59:55;98747.00;;;22.91;17.10
70302;BME280;57706;56.326;43.882;2023-03-04T09:02:21;98744.44;;;24.87;15.73
70302;BME280;57706;56.326;43.882;2023-03-04T09:04:47;98746.69;;;23.80;16.92
70302;BME280;57706;56.326;43.882;2023-03-04T09:07:13;98732.91;;;26.65;15.01
70302;BME280;57706;56.326;43.882;2023-03-04T09:09:39;98747.25;;;25.47;15.21
70302;BME280;57706;56.326;43.882;2023-03-04T09:12:06;98742.03;;;25.78;14.92
70302;BME280;57706;56.326;43.882;2023-03-04T09:14:33;98738.03;;;23.45;16.70
70302;BME280;57706;56.326;43.882;2023-03-04T09:17:02;98738.13;;;25.34;15.04
70302;BME280;57706;56.326;43.882;2023-03-04T09:19:28;98730.03;;;25.84;14.67
70302;BME280;57706;56.326;43.882;2023-03-04T09:21:54;98722.00;;;25.34;15.28
70302;BME280;57706;56.326;43.882;2023-03-04T09:24:20;98728.16;;;21.17;18.63
70302;BME280;57706;56.326;43.882;2023-03-04T09:26:50;98726.03;;;18.41;21.77
70302;BME280;57706;56.326;43.882;2023-03-04T09:29:16;98718.81;;;15.14;25.25
70302;BME280;57706;56.326;43.882;2023-03-04T09:31:42;98726.97;;;14.17;27.40
70302;BME280;57706;56.326;43.882;2023-03-04T09:34:09;98727.78;;;13.75;28.08
70302;BME280;57706;56.326;43.882;2023-03-04T09:36:35;98726.28;;;13.80;28.31
70302;BME280;57706;56.326;43.882;2023-03-04T09:39:02;98725.88;;;14.37;27.78
70302;BME280;57706;56.326;43.882;2023-03-04T09:41:39;98721.81;;;16.91;25.19
70302;BME280;57706;56.326;43.882;2023-03-04T09:46:39;98736.69;;;15.07;26.57
70302;BME280;57706;56.326;43.882;2023-03-04T09:49:10;98727.63;;;16.54;25.41
70302;BME280;57706;56.326;43.882;2023-03-04T09:57:33;98726.81;;;12.00;30.92
70302;BME280;57706;56.326;43.882;2023-03-04T10:05:30;98706.88;;;10.40;33.56
70302;BME280;57706;56.326;43.882;2023-03-04T10:07:59;98712.63;;;9.68;35.32
70302;BME280;57706;56.326;43.882;2023-03-04T10:10:34;98716.47;;;9.17;36.31
70302;BME280;57706;56.326;43.882;2023-03-04T10:13:02;98728.59;;;8.10;38.19
70302;BME280;57706;56.326;43.882;2023-03-04T10:15:39;98719.75;;;8.11;37.88
70302;BME280;57706;56.326;43.882;2023-03-04T10:18:19;98721.16;;;7.92;38.46
70302;BME280;57706;56.326;43.882;2023-03-04T10:20:56;98718.81;;;7.97;38.46
70302;BME280;57706;56.326;43.882;2023-03-04T10:23:25;98720.91;;;8.09;38.59
70302;BME280;57706;56.326;43.882;2023-03-04T10:25:53;98717.16;;;7.75;39.43
70302;BME280;57706;56.326;43.882;2023-03-04T10:28:26;98715.69;;;8.09;38.41
70302;BME280;57706;56.326;43.882;2023-03-04T10:33:41;98707.97;;;6.67;41.72
70302;BME280;57706;56.326;43.882;2023-03-04T10:38:41;98711.56;;;6.51;43.03
70302;BME280;57706;56.326;43.882;2023-03-04T10:41:13;98718.69;;;6.57;42.97
70302;BME280;57706;56.326;43.882;2023-03-04T10:43:39;98719.16;;;6.60;43.12
70302;BME280;57706;56.326;43.882;2023-03-04T10:46:10;98708.84;;;5.97;44.41
70302;BME280;57706;56.326;43.882;2023-03-04T10:48:39;98705.94;;;5.69;45.34
70302;BME280;57706;56.326;43.882;2023-03-04T10:53:43;98713.75;;;6.24;44.35
70302;BME280;57706;56.326;43.882;2023-03-04T11:01:50;98701.56;;;5.92;45.06
70302;BME280;57706;56.326;43.882;2023-03-04T11:04:19;98712.44;;;5.96;45.54
70302;BME280;57706;56.326;43.882;2023-03-04T11:06:47;98703.50;;;4.87;49.38
70302;BME280;57706;56.326;43.882;2023-03-04T11:09:27;98713.31;;;4.60;51.39
70302;BME280;57706;56.326;43.882;2023-03-04T11:11:54;98719.00;;;4.14;52.42
70302;BME280;57706;56.326;43.882;2023-03-04T11:14:25;98713.47;;;3.92;53.87
70302;BME280;57706;56.326;43.882;2023-03-04T11:17:02;98710.41;;;4.47;53.09
70302;BME280;57706;56.326;43.882;2023-03-04T11:19:41;98709.59;;;4.05;53.91
70302;BME280;57706;56.326;43.882;2023-03-04T11:22:13;98704.84;;;3.75;54.80
70302;BME280;57706;56.326;43.882;2023-03-04T11:24:41;98714.28;;;3.93;55.48
70302;BME280;57706;56.326;43.882;2023-03-04T11:28:14;98720.59;;;3.65;56.69
70302;BME280;57706;56.326;43.882;2023-03-04T11:30:31;98712.47;;;3.77;58.68
70302;BME280;57706;56.326;43.882;2023-03-04T11:33:04;98709.38;;;3.65;59.45
70302;BME280;57706;56.326;43.882;2023-03-04T11:35:53;98710.31;;;3.55;60.91
70302;BME280;57706;56.326;43.882;2023-03-04T11:38:35;98708.09;;;4.02;59.78
70302;BME280;57706;56.326;43.882;2023-03-04T11:43:36;98706.66;;;3.32;61.02
70302;BME280;57706;56.326;43.882;2023-03-04T11:51:21;98688.03;;;3.44;59.49
70302;BME280;57706;56.326;43.882;2023-03-04T11:56:43;98697.66;;;3.61;58.74
70302;BME280;57706;56.326;43.882;2023-03-04T11:59:34;98679.81;;;4.49;55.94
70302;BME280;57706;56.326;43.882;2023-03-04T12:02:19;98679.81;;;4.65;54.01
70302;BME280;57706;56.326;43.882;2023-03-04T12:10:24;98674.47;;;7.15;48.64
70302;BME280;57706;56.326;43.882;2023-03-04T12:15:30;98663.34;;;5.21;53.28
70302;BME280;57706;56.326;43.882;2023-03-04T12:21:33;98659.25;;;6.05;52.68
70302;BME280;57706;56.326;43.882;2023-03-04T12:27:01;98658.31;;;5.75;53.06
70302;BME280;57706;56.326;43.882;2023-03-04T12:46:06;98632.13;;;5.91;44.50
70302;BME280;57706;56.326;43.882;2023-03-04T12:48:40;98632.91;;;6.69;42.25
70302;BME280;57706;56.326;43.882;2023-03-04T12:51:26;98624.00;;;6.10;44.27
70302;BME280;57706;56.326;43.882;2023-03-04T12:58:56;98620.44;;;8.32;39.58
70302;BME280;57706;56.326;43.882;2023-03-04T13:01:36;98615.66;;;8.71;38.34
70302;BME280;57706;56.326;43.882;2023-03-04T13:07:13;98609.25;;;5.00;46.11
70302;BME280;57706;56.326;43.882;2023-03-04T13:10:04;98616.28;;;4.35;47.79
70302;BME280;57706;56.326;43.882;2023-03-04T13:12:56;98613.69;;;2.84;51.45
70302;BME280;57706;56.326;43.882;2023-03-04T13:15:36;98623.13;;;2.93;51.81
70302;BME280;57706;56.326;43.882;2023-03-04T13:21:19;98620.00;;;2.46;53.76
70302;BME280;57706;56.326;43.882;2023-03-04T13:23:46;98607.69;;;2.22;55.24
70302;BME280;57706;56.326;43.882;2023-03-04T13:26:33;98609.69;;;2.10;56.60
70302;BME280;57706;56.326;43.882;2023-03-04T13:29:31;98604.03;;;2.33;56.35
70302;BME280;57706;56.326;43.882;2023-03-04T13:32:07;98606.56;;;2.25;57.29
70302;BME280;57706;56.326;43.882;2023-03-04T13:34:46;98609.13;;;2.43;57.03
70302;BME280;57706;56.326;43.882;2023-03-04T13:37:55;98597.97;;;1.98;58.53
70302;BME280;57706;56.326;43.882;2023-03-04T13:42:48;98592.59;;;1.73;60.04
70302;BME280;57706;56.326;43.882;2023-03-04T13:45:33;98586.00;;;1.60;61.52
70302;BME280;57706;56.326;43.882;2023-03-04T13:48:02;98582.06;;;1.02;63.73
70302;BME280;57706;56.326;43.882;2023-03-04T13:50:45;98584.97;;;1.17;63.49
70302;BME280;57706;56.326;43.882;2023-03-04T13:53:40;98582.16;;;1.28;63.97
70302;BME280;57706;56.326;43.882;2023-03-04T13:58:35;98581.97;;;1.12;65.20
70302;BME280;57706;56.326;43.882;2023-03-04T14:01:03;98591.78;;;0.90;66.96
70302;BME280;57706;56.326;43.882;2023-03-04T14:03:30;98585.78;;;1.17;65.77
70302;BME280;57706;56.326;43.882;2023-03-04T14:06:22;98583.09;;;1.09;66.15
70302;BME280;57706;56.326;43.882;2023-03-04T14:08:49;98581.97;;;1.12;66.44
70302;BME280;57706;56.326;43.882;2023-03-04T14:11:27;98578.53;;;0.75;67.77
70302;BME280;57706;56.326;43.882;2023-03-04T14:13:54;98574.81;;;0.77;67.69
70302;BME280;57706;56.326;43.882;2023-03-04T14:16:26;98573.38;;;0.93;66.93
70302;BME280;57706;56.326;43.882;2023-03-04T14:18:56;98576.38;;;0.98;66.49
70302;BME280;57706;56.326;43.882;2023-03-04T14:21:23;98576.53;;;0.87;66.94
70302;BME280;57706;56.326;43.882;2023-03-04T14:24:05;98578.75;;;0.81;66.43
70302;BME280;57706;56.326;43.882;2023-03-04T14:26:32;98570.69;;;0.85;65.95
70302;BME280;57706;56.326;43.882;2023-03-04T14:28:59;98569.22;;;0.54;67.33